Time,TemperatureF,DewpointF,PressureIn,WindDirection,WindDirectionDegrees,WindSpeedMPH,WindSpeedGustMPH,Humidity,HourlyPrecipIn,Conditions,Clouds,dailyrainin,SoftwareType,DateUTC
2013-12-05 00:01:00,34.4,33.6,29.93,North,360,0.0,0.0,97,0.00,,---,0.00,VWS V13.01,2013-12-05 05:01:00,
2013-12-05 00:03:00,34.4,33.6,29.93,North,360,0.0,0.0,97,0.00,,---,0.00,VWS V13.01,2013-12-05 05:03:00,
2013-12-05 00:04:00,34.5,33.7,29.93,North,360,0.0,0.0,97,0.00,,---,0.00,VWS V13.01,2013-12-05 05:04:00,
2013-12-05 00:06:00,34.4,33.6,29.93,North,360,0.0,0.0,97,0.00,,---,0.00,VWS V13.01,2013-12-05 05:06:00,
2013-12-05 00:11:00,34.7,33.9,29.93,North,360,0.0,0.0,97,0.00,,---,0.00,VWS V13.01,2013-12-05 05:11:00,
2013-12-05 00:13:00,34.7,33.9,29.93,North,360,0.0,0.0,97,0.00,,---,0.00,VWS V13.01,2013-12-05 05:13:00,
2013-12-05 00:18:00,34.4,33.6,29.93,North,360,0.0,0.0,97,0.00,,---,0.00,VWS V13.01,2013-12-05 05:18:00,
2013-12-05 00:23:00,34.5,33.7,29.93,North,360,0.0,0.0,97,0.00,,---,0.00,VWS V13.01,2013-12-05 05:23:00,
2013-12-05 00:28:00,34.4,33.6,29.92,North,360,0.0,0.0,97,0.00,,---,0.00,VWS V13.01,2013-12-05 05:28:00,
2013-12-05 00:33:00,34.5,33.7,29.92,North,360,0.0,0.0,97,0.00,,---,0.00,VWS V13.01,2013-12-05 05:33:00,
2013-12-05 00:38:00,34.6,33.8,29.92,North,360,0.0,0.0,97,0.00,,---,0.00,VWS V13.01,2013-12-05 05:38:00,
2013-12-05 00:43:00,34.7,33.9,29.92,North,360,0.0,0.0,97,0.00,,---,0.00,VWS V13.01,2013-12-05 05:43:00,
2013-12-05 00:49:00,34.7,33.9,29.91,North,360,0.0,0.0,97,0.00,,---,0.00,VWS V13.01,2013-12-05 05:49:00,
2013-12-05 00:54:00,34.5,33.7,29.91,North,360,0.0,0.0,97,0.00,,---,0.00,VWS V13.01,2013-12-05 05:54:00,
2013-12-05 00:59:00,34.7,33.9,29.91,North,360,0.0,1.0,97,0.00,,---,0.00,VWS V13.01,2013-12-05 05:59:00,
2013-12-05 01:04:00,34.9,34.1,29.91,North,360,0.0,0.0,97,0.00,,---,0.00,VWS V13.01,2013-12-05 06:04:00,
2013-12-05 01:09:00,34.9,34.1,29.91,North,360,0.0,0.0,97,0.00,,---,0.00,VWS V13.01,2013-12-05 06:09:00,
2013-12-05 01:14:00,34.9,34.1,29.91,North,360,0.0,0.0,97,0.00,,---,0.00,VWS V13.01,2013-12-05 06:14:00,
2013-12-05 01:19:00,35.1,34.3,29.91,North,360,0.0,0.0,97,0.00,,---,0.00,VWS V13.01,2013-12-05 06:19:00,
2013-12-05 01:24:00,35.2,34.4,29.90,North,360,0.0,0.0,97,0.00,,---,0.00,VWS V13.01,2013-12-05 06:24:00,
2013-12-05 01:29:00,35.3,34.5,29.90,North,360,0.0,0.0,97,0.00,,---,0.00,VWS V13.01,2013-12-05 06:29:00,
2013-12-05 01:34:00,35.2,34.4,29.90,North,360,0.0,1.0,97,0.00,,---,0.00,VWS V13.01,2013-12-05 06:34:00,
2013-12-05 01:39:00,35.1,34.3,29.90,North,360,0.0,1.0,97,0.00,,---,0.00,VWS V13.01,2013-12-05 06:39:00,
2013-12-05 01:44:00,35.1,34.3,29.90,North,360,0.0,1.0,97,0.00,,---,0.00,VWS V13.01,2013-12-05 06:44:00,
2013-12-05 01:49:00,35.3,34.5,29.90,North,360,0.0,1.0,97,0.00,,---,0.00,VWS V13.01,2013-12-05 06:49:00,
2013-12-05 01:54:00,35.4,34.6,29.90,North,360,0.0,3.0,97,0.00,,---,0.00,VWS V13.01,2013-12-05 06:54:00,
2013-12-05 01:59:00,35.3,34.5,29.89,North,360,0.0,3.0,97,0.00,,---,0.00,VWS V13.01,2013-12-05 06:59:00,
2013-12-05 02:05:00,35.2,34.4,29.89,North,360,0.0,0.0,97,0.00,,---,0.00,VWS V13.01,2013-12-05 07:05:00,
2013-12-05 02:10:00,35.0,34.2,29.88,North,360,0.0,0.0,97,0.00,,---,0.00,VWS V13.01,2013-12-05 07:10:00,
2013-12-05 02:15:00,35.0,34.2,29.87,North,360,0.0,0.0,97,0.00,,---,0.00,VWS V13.01,2013-12-05 07:15:00,
2013-12-05 02:20:00,34.8,34.0,29.88,North,360,0.0,0.0,97,0.00,,---,0.00,VWS V13.01,2013-12-05 07:20:00,
2013-12-05 02:25:00,34.8,34.0,29.89,North,360,0.0,0.0,97,0.00,,---,0.00,VWS V13.01,2013-12-05 07:25:00,
2013-12-05 02:30:00,34.8,34.0,29.89,North,360,0.0,0.0,97,0.00,,---,0.00,VWS V13.01,2013-12-05 07:30:00,
2013-12-05 02:35:00,34.8,34.0,29.89,North,360,0.0,0.0,97,0.00,,---,0.00,VWS V13.01,2013-12-05 07:35:00,
2013-12-05 02:40:00,34.8,34.0,29.89,North,360,0.0,0.0,97,0.00,,---,0.00,VWS V13.01,2013-12-05 07:40:00,
2013-12-05 02:45:00,34.8,34.0,29.89,North,360,0.0,0.0,97,0.00,,---,0.00,VWS V13.01,2013-12-05 07:45:00,
2013-12-05 02:50:00,35.0,34.2,29.89,North,360,0.0,0.0,97,0.00,,---,0.00,VWS V13.01,2013-12-05 07:50:00,
2013-12-05 02:55:00,35.1,34.3,29.89,North,360,0.0,2.0,97,0.00,,---,0.00,VWS V13.01,2013-12-05 07:55:00,
2013-12-05 03:00:00,35.1,34.3,29.88,North,360,0.0,0.0,97,0.00,,---,0.00,VWS V13.01,2013-12-05 08:00:00,
2013-12-05 03:05:00,35.4,34.6,29.88,North,360,0.0,0.0,97,0.00,,---,0.00,VWS V13.01,2013-12-05 08:05:00,
2013-12-05 03:10:00,35.6,34.8,29.88,North,360,0.0,0.0,97,0.00,,---,0.00,VWS V13.01,2013-12-05 08:10:00,
2013-12-05 03:16:00,35.9,35.4,29.88,North,360,0.0,1.0,98,0.00,,---,0.00,VWS V13.01,2013-12-05 08:16:00,
2013-12-05 03:21:00,36.8,36.3,29.87,North,360,0.0,1.0,98,0.00,,---,0.00,VWS V13.01,2013-12-05 08:21:00,
2013-12-05 03:26:00,36.7,36.2,29.87,North,360,0.0,1.0,98,0.00,,---,0.00,VWS V13.01,2013-12-05 08:26:00,
2013-12-05 03:31:00,36.8,36.3,29.86,North,360,0.0,0.0,98,0.00,,---,0.00,VWS V13.01,2013-12-05 08:31:00,
2013-12-05 03:36:00,37.3,36.8,29.86,North,360,1.0,1.0,98,0.00,,---,0.00,VWS V13.01,2013-12-05 08:36:00,
2013-12-05 03:41:00,37.5,37.0,29.86,North,360,0.0,1.0,98,0.00,,---,0.00,VWS V13.01,2013-12-05 08:41:00,
2013-12-05 03:46:00,37.2,36.7,29.85,North,360,0.0,1.0,98,0.00,,---,0.00,VWS V13.01,2013-12-05 08:46:00,
2013-12-05 03:51:00,37.7,37.2,29.85,North,360,0.0,1.0,98,0.00,,---,0.00,VWS V13.01,2013-12-05 08:51:00,
2013-12-05 03:56:00,37.8,37.3,29.85,North,360,0.0,1.0,98,0.00,,---,0.00,VWS V13.01,2013-12-05 08:56:00,
2013-12-05 04:01:00,37.8,37.3,29.85,North,360,0.0,0.0,98,0.00,,---,0.00,VWS V13.01,2013-12-05 09:01:00,
2013-12-05 04:06:00,38.1,37.6,29.85,North,360,0.0,6.0,98,0.00,,---,0.00,VWS V13.01,2013-12-05 09:06:00,
2013-12-05 04:11:00,38.3,37.8,29.85,North,360,2.0,6.0,98,0.00,,---,0.00,VWS V13.01,2013-12-05 09:11:00,
2013-12-05 04:17:00,38.5,38.0,29.85,North,360,0.0,6.0,98,0.00,,---,0.00,VWS V13.01,2013-12-05 09:17:00,
2013-12-05 04:22:00,38.7,38.2,29.85,North,360,1.0,6.0,98,0.00,,---,0.00,VWS V13.01,2013-12-05 09:22:00,
2013-12-05 04:27:00,38.9,38.4,29.84,North,360,0.0,6.0,98,0.00,,---,0.00,VWS V13.01,2013-12-05 09:27:00,
2013-12-05 04:32:00,39.0,38.5,29.84,North,360,0.0,0.0,98,0.00,,---,0.00,VWS V13.01,2013-12-05 09:32:00,
2013-12-05 04:37:00,38.9,38.4,29.85,North,360,0.0,0.0,98,0.00,,---,0.00,VWS V13.01,2013-12-05 09:37:00,
2013-12-05 04:42:00,39.2,38.7,29.84,North,360,0.0,4.0,98,0.00,,---,0.00,VWS V13.01,2013-12-05 09:42:00,
2013-12-05 04:47:00,40.0,39.5,29.85,North,360,5.0,5.0,98,0.00,,---,0.00,VWS V13.01,2013-12-05 09:47:00,
2013-12-05 04:52:00,40.2,39.7,29.85,North,360,0.0,5.0,98,0.00,,---,0.00,VWS V13.01,2013-12-05 09:52:00,
2013-12-05 04:58:00,39.6,38.8,29.85,North,360,0.0,5.0,97,0.00,,---,0.00,VWS V13.01,2013-12-05 09:58:00,
2013-12-05 05:03:00,39.3,38.5,29.85,North,360,2.0,2.0,97,0.00,,---,0.00,VWS V13.01,2013-12-05 10:03:00,
2013-12-05 05:08:00,39.1,38.3,29.85,North,360,0.0,2.0,97,0.00,,---,0.00,VWS V13.01,2013-12-05 10:08:00,
2013-12-05 05:13:00,39.4,38.6,29.85,North,360,0.0,2.0,97,0.00,,---,0.00,VWS V13.01,2013-12-05 10:13:00,
2013-12-05 05:18:00,39.6,38.8,29.84,North,360,0.0,2.0,97,0.00,,---,0.00,VWS V13.01,2013-12-05 10:18:00,
2013-12-05 05:23:00,39.5,38.7,29.84,North,360,0.0,2.0,97,0.00,,---,0.00,VWS V13.01,2013-12-05 10:23:00,
2013-12-05 05:28:00,39.9,39.1,29.85,North,360,0.0,4.0,97,0.00,,---,0.00,VWS V13.01,2013-12-05 10:28:00,
2013-12-05 05:33:00,40.2,39.4,29.85,North,360,0.0,0.0,97,0.00,,---,0.00,VWS V13.01,2013-12-05 10:33:00,
2013-12-05 05:38:00,39.9,39.1,29.85,North,360,0.0,0.0,97,0.00,,---,0.00,VWS V13.01,2013-12-05 10:38:00,
2013-12-05 05:43:00,39.8,39.0,29.85,North,360,0.0,2.0,97,0.00,,---,0.00,VWS V13.01,2013-12-05 10:43:00,
2013-12-05 05:48:00,39.7,38.9,29.85,North,360,0.0,2.0,97,0.00,,---,0.00,VWS V13.01,2013-12-05 10:48:00,
2013-12-05 05:53:00,39.4,38.6,29.84,North,360,0.0,2.0,97,0.00,,---,0.00,VWS V13.01,2013-12-05 10:53:00,
2013-12-05 05:58:00,38.7,37.7,29.85,North,360,0.0,2.0,96,0.00,,---,0.00,VWS V13.01,2013-12-05 10:58:00,
2013-12-05 06:03:00,38.7,37.7,29.84,North,360,0.0,1.0,96,0.00,,---,0.00,VWS V13.01,2013-12-05 11:03:00,
2013-12-05 06:09:00,38.8,38.0,29.84,North,360,0.0,1.0,97,0.00,,---,0.00,VWS V13.01,2013-12-05 11:09:00,
2013-12-05 06:14:00,39.3,38.5,29.84,North,360,0.0,2.0,97,0.00,,---,0.00,VWS V13.01,2013-12-05 11:14:00,
2013-12-05 06:19:00,39.1,38.3,29.84,North,360,0.0,2.0,97,0.00,,---,0.00,VWS V13.01,2013-12-05 11:19:00,
2013-12-05 06:24:00,39.1,38.3,29.84,North,360,0.0,2.0,97,0.00,,---,0.00,VWS V13.01,2013-12-05 11:24:00,
2013-12-05 06:29:00,39.1,38.3,29.83,North,360,0.0,2.0,97,0.00,,---,0.00,VWS V13.01,2013-12-05 11:29:00,
2013-12-05 06:34:00,38.8,37.8,29.83,North,360,0.0,0.0,96,0.00,,---,0.00,VWS V13.01,2013-12-05 11:34:00,
2013-12-05 06:39:00,38.8,38.0,29.83,North,360,0.0,1.0,97,0.00,,---,0.00,VWS V13.01,2013-12-05 11:39:00,
2013-12-05 06:44:00,38.9,38.1,29.83,North,360,0.0,1.0,97,0.00,,---,0.00,VWS V13.01,2013-12-05 11:44:00,
2013-12-05 06:49:00,38.7,37.7,29.83,North,360,0.0,1.0,96,0.00,,---,0.00,VWS V13.01,2013-12-05 11:49:00,
2013-12-05 06:54:00,38.6,37.6,29.83,North,360,0.0,2.0,96,0.00,,---,0.00,VWS V13.01,2013-12-05 11:54:00,
2013-12-05 06:59:00,39.1,38.3,29.83,North,360,0.0,7.0,97,0.00,,---,0.00,VWS V13.01,2013-12-05 11:59:00,
2013-12-05 07:04:00,39.8,39.0,29.84,North,360,3.0,4.0,97,0.00,,---,0.00,VWS V13.01,2013-12-05 12:04:00,
2013-12-05 07:09:00,40.3,39.5,29.84,North,360,0.0,4.0,97,0.00,,---,0.00,VWS V13.01,2013-12-05 12:09:00,
2013-12-05 07:14:00,40.6,39.8,29.84,North,360,0.0,4.0,97,0.00,,---,0.00,VWS V13.01,2013-12-05 12:14:00,
2013-12-05 07:20:00,41.1,40.3,29.84,North,360,0.0,4.0,97,0.00,,---,0.00,VWS V13.01,2013-12-05 12:20:00,
2013-12-05 07:25:00,42.1,41.6,29.84,North,360,0.0,5.0,98,0.00,,---,0.00,VWS V13.01,2013-12-05 12:25:00,
2013-12-05 07:30:00,43.9,43.4,29.84,North,360,0.0,0.0,98,0.00,,---,0.00,VWS V13.01,2013-12-05 12:30:00,
2013-12-05 07:35:00,44.7,44.2,29.84,North,360,0.0,5.0,98,0.00,,---,0.00,VWS V13.01,2013-12-05 12:35:00,
2013-12-05 07:40:00,44.1,43.6,29.84,North,360,0.0,6.0,98,0.00,,---,0.00,VWS V13.01,2013-12-05 12:40:00,
2013-12-05 07:45:00,44.7,44.2,29.84,North,360,0.0,6.0,98,0.00,,---,0.00,VWS V13.01,2013-12-05 12:45:00,
2013-12-05 07:50:00,44.6,43.8,29.84,North,360,0.0,6.0,97,0.00,,---,0.00,VWS V13.01,2013-12-05 12:50:00,
2013-12-05 07:55:00,45.0,44.2,29.84,North,360,0.0,6.0,97,0.00,,---,0.00,VWS V13.01,2013-12-05 12:55:00,
2013-12-05 08:00:00,46.0,45.2,29.85,North,360,0.0,0.0,97,0.00,,---,0.00,VWS V13.01,2013-12-05 13:00:00,
2013-12-05 08:05:00,45.4,44.3,29.85,North,360,0.0,0.0,96,0.00,,---,0.00,VWS V13.01,2013-12-05 13:05:00,
2013-12-05 08:10:00,45.3,44.2,29.84,North,360,0.0,0.0,96,0.00,,---,0.00,VWS V13.01,2013-12-05 13:10:00,
2013-12-05 08:15:00,45.7,44.9,29.85,North,360,0.0,0.0,97,0.00,,---,0.00,VWS V13.01,2013-12-05 13:15:00,
2013-12-05 08:21:00,45.3,44.2,29.84,North,360,0.0,0.0,96,0.00,,---,0.00,VWS V13.01,2013-12-05 13:21:00,
2013-12-05 08:26:00,45.0,43.9,29.84,North,360,0.0,0.0,96,0.00,,---,0.00,VWS V13.01,2013-12-05 13:26:00,
2013-12-05 08:31:00,45.0,43.9,29.85,North,360,0.0,0.0,96,0.00,,---,0.00,VWS V13.01,2013-12-05 13:31:00,
2013-12-05 08:36:00,45.0,43.9,29.84,North,360,0.0,0.0,96,0.00,,---,0.00,VWS V13.01,2013-12-05 13:36:00,
2013-12-05 08:41:00,45.0,43.9,29.84,North,360,0.0,1.0,96,0.00,,---,0.00,VWS V13.01,2013-12-05 13:41:00,
2013-12-05 08:46:00,45.4,44.3,29.84,North,360,0.0,5.0,96,0.00,,---,0.00,VWS V13.01,2013-12-05 13:46:00,
2013-12-05 08:51:00,46.4,45.6,29.84,North,360,1.0,5.0,97,0.00,,---,0.00,VWS V13.01,2013-12-05 13:51:00,
2013-12-05 08:56:00,46.1,45.0,29.83,North,360,0.0,5.0,96,0.00,,---,0.00,VWS V13.01,2013-12-05 13:56:00,
2013-12-05 09:01:00,46.0,44.7,29.83,North,360,4.0,7.0,95,0.00,,---,0.00,VWS V13.01,2013-12-05 14:01:00,
2013-12-05 09:06:00,46.5,45.4,29.83,North,360,0.0,7.0,96,0.00,,---,0.00,VWS V13.01,2013-12-05 14:06:00,
2013-12-05 09:11:00,46.4,45.3,29.83,North,360,0.0,7.0,96,0.00,,---,0.00,VWS V13.01,2013-12-05 14:11:00,
2013-12-05 09:16:00,46.0,44.7,29.83,North,360,0.0,7.0,95,0.00,,---,0.00,VWS V13.01,2013-12-05 14:16:00,
2013-12-05 09:22:00,46.9,45.8,29.83,NNE,23,0.0,7.0,96,0.00,,---,0.00,VWS V13.01,2013-12-05 14:22:00,
2013-12-05 09:27:00,47.4,46.3,29.83,NNE,23,0.0,7.0,96,0.00,,---,0.00,VWS V13.01,2013-12-05 14:27:00,
2013-12-05 09:32:00,47.9,46.8,29.83,NNE,23,0.0,0.0,96,0.00,,---,0.00,VWS V13.01,2013-12-05 14:32:00,
2013-12-05 09:37:00,48.4,47.3,29.82,NNE,23,0.0,0.0,96,0.00,,---,0.00,VWS V13.01,2013-12-05 14:37:00,
2013-12-05 09:42:00,49.2,48.1,29.83,NNE,18,0.0,8.0,96,0.00,,---,0.00,VWS V13.01,2013-12-05 14:42:00,
2013-12-05 09:47:00,49.4,48.0,29.83,NNE,18,0.0,8.0,95,0.00,,---,0.00,VWS V13.01,2013-12-05 14:47:00,
2013-12-05 09:52:00,50.9,49.8,29.83,NNW,344,0.0,9.0,96,0.00,,---,0.00,VWS V13.01,2013-12-05 14:52:00,
2013-12-05 09:57:00,52.6,51.2,29.83,NNW,344,0.0,9.0,95,0.00,,---,0.00,VWS V13.01,2013-12-05 14:57:00,
2013-12-05 10:02:00,52.6,50.3,29.83,NNW,344,0.0,0.0,92,0.00,,---,0.00,VWS V13.01,2013-12-05 15:02:00,
2013-12-05 10:07:00,53.2,51.2,29.83,West,276,3.0,11.0,93,0.00,,---,0.00,VWS V13.01,2013-12-05 15:07:00,
2013-12-05 10:12:00,53.6,50.7,29.84,West,276,1.0,11.0,90,0.00,,---,0.00,VWS V13.01,2013-12-05 15:12:00,
2013-12-05 10:17:00,53.8,51.2,29.84,West,276,0.0,11.0,91,0.00,,---,0.00,VWS V13.01,2013-12-05 15:17:00,
2013-12-05 10:22:00,53.9,50.7,29.83,West,276,4.0,11.0,89,0.00,,---,0.00,VWS V13.01,2013-12-05 15:22:00,
2013-12-05 10:28:00,53.7,50.5,29.83,West,276,2.0,11.0,89,0.00,,---,0.00,VWS V13.01,2013-12-05 15:28:00,
2013-12-05 10:33:00,53.6,50.7,29.83,West,276,1.0,1.0,90,0.00,,---,0.00,VWS V13.01,2013-12-05 15:33:00,
2013-12-05 10:38:00,54.3,51.4,29.82,West,276,4.0,6.0,90,0.00,,---,0.00,VWS V13.01,2013-12-05 15:38:00,
2013-12-05 10:43:00,55.2,52.0,29.82,West,276,0.0,8.0,89,0.00,,---,0.00,VWS V13.01,2013-12-05 15:43:00,
2013-12-05 10:48:00,54.9,51.4,29.82,West,276,0.0,8.0,88,0.00,,---,0.00,VWS V13.01,2013-12-05 15:48:00,
2013-12-05 10:53:00,54.7,52.4,29.82,West,276,0.0,8.0,92,0.00,,---,0.00,VWS V13.01,2013-12-05 15:53:00,
2013-12-05 10:58:00,54.4,50.6,29.82,West,276,0.0,8.0,87,0.00,,---,0.00,VWS V13.01,2013-12-05 15:58:00,
2013-12-05 11:03:00,55.2,52.6,29.82,WNW,290,0.0,10.0,91,0.00,,---,0.00,VWS V13.01,2013-12-05 16:03:00,
2013-12-05 11:08:00,55.6,51.8,29.81,WNW,290,0.0,10.0,87,0.00,,---,0.00,VWS V13.01,2013-12-05 16:08:00,
2013-12-05 11:13:00,54.8,50.7,29.81,WNW,290,0.0,10.0,86,0.00,,---,0.00,VWS V13.01,2013-12-05 16:13:00,
2013-12-05 11:18:00,54.1,50.9,29.80,WNW,290,0.0,10.0,89,0.00,,---,0.00,VWS V13.01,2013-12-05 16:18:00,
2013-12-05 11:23:00,53.7,50.5,29.80,WNW,290,0.0,10.0,89,0.00,,---,0.00,VWS V13.01,2013-12-05 16:23:00,
2013-12-05 11:28:00,53.2,50.3,29.79,WNW,290,0.0,10.0,90,0.00,,---,0.00,VWS V13.01,2013-12-05 16:28:00,
2013-12-05 11:33:00,53.0,50.2,29.79,WNW,290,0.0,0.0,90,0.00,,---,0.00,VWS V13.01,2013-12-05 16:33:00,
2013-12-05 11:38:00,52.4,49.3,29.79,WNW,290,0.0,0.0,89,0.00,,---,0.00,VWS V13.01,2013-12-05 16:38:00,
2013-12-05 11:44:00,51.7,48.9,29.79,WNW,290,0.0,1.0,90,0.00,,---,0.00,VWS V13.01,2013-12-05 16:44:00,
2013-12-05 11:49:00,50.9,48.4,29.79,WNW,290,2.0,4.0,91,0.00,,---,0.00,VWS V13.01,2013-12-05 16:49:00,
2013-12-05 11:54:00,51.3,49.3,29.79,WNW,290,0.0,4.0,93,0.00,,---,0.00,VWS V13.01,2013-12-05 16:54:00,
2013-12-05 11:59:00,51.7,49.8,29.79,WNW,290,2.0,5.0,93,0.00,,---,0.00,VWS V13.01,2013-12-05 16:59:00,
2013-12-05 12:04:00,52.4,50.4,29.79,WNW,290,5.0,5.0,93,0.00,,---,0.00,VWS V13.01,2013-12-05 17:04:00,
2013-12-05 12:09:00,53.5,51.5,29.78,WNW,290,0.0,6.0,93,0.00,,---,0.00,VWS V13.01,2013-12-05 17:09:00,
2013-12-05 12:14:00,54.0,51.4,29.78,WNW,290,0.0,7.0,91,0.00,,---,0.00,VWS V13.01,2013-12-05 17:14:00,
2013-12-05 12:19:00,54.2,51.9,29.78,WNW,290,0.0,7.0,92,0.00,,---,0.00,VWS V13.01,2013-12-05 17:19:00,
2013-12-05 12:24:00,55.0,53.0,29.78,WNW,290,0.0,8.0,93,0.00,,---,0.00,VWS V13.01,2013-12-05 17:24:00,
2013-12-05 12:29:00,55.7,53.1,29.78,West,276,5.0,10.0,91,0.00,,---,0.00,VWS V13.01,2013-12-05 17:29:00,
2013-12-05 12:34:00,56.3,53.7,29.78,West,276,7.0,10.0,91,0.00,,---,0.00,VWS V13.01,2013-12-05 17:34:00,
2013-12-05 12:39:00,57.0,53.5,29.78,West,271,6.0,12.0,88,0.00,,---,0.00,VWS V13.01,2013-12-05 17:39:00,
2013-12-05 12:44:00,57.2,53.7,29.78,West,267,10.0,15.0,88,0.00,,---,0.00,VWS V13.01,2013-12-05 17:44:00,
2013-12-05 12:49:00,57.4,54.2,29.77,West,263,10.0,15.0,89,0.00,,---,0.00,VWS V13.01,2013-12-05 17:49:00,
2013-12-05 12:54:00,56.9,53.4,29.78,West,261,8.0,15.0,88,0.00,,---,0.00,VWS V13.01,2013-12-05 17:54:00,
2013-12-05 13:00:00,56.7,53.5,29.78,West,260,4.0,4.0,89,0.00,,---,0.00,VWS V13.01,2013-12-05 18:00:00,
2013-12-05 13:05:00,56.7,53.5,29.78,WSW,249,12.0,14.0,89,0.00,,---,0.00,VWS V13.01,2013-12-05 18:05:00,
2013-12-05 13:10:00,57.5,54.6,29.78,West,263,7.0,14.0,90,0.00,,---,0.00,VWS V13.01,2013-12-05 18:10:00,
2013-12-05 13:15:00,57.8,54.9,29.78,West,272,10.0,16.0,90,0.00,,---,0.00,VWS V13.01,2013-12-05 18:15:00,
2013-12-05 13:20:00,57.8,54.9,29.78,West,277,7.0,16.0,90,0.00,,---,0.00,VWS V13.01,2013-12-05 18:20:00,
2013-12-05 13:25:00,57.6,54.7,29.78,WSW,254,6.0,16.0,90,0.00,,---,0.00,VWS V13.01,2013-12-05 18:25:00,
2013-12-05 13:30:00,57.3,54.7,29.78,WSW,258,6.0,7.0,91,0.00,,---,0.00,VWS V13.01,2013-12-05 18:30:00,
2013-12-05 13:35:00,57.6,55.0,29.77,West,270,9.0,13.0,91,0.00,,---,0.00,VWS V13.01,2013-12-05 18:35:00,
2013-12-05 13:40:00,57.8,55.2,29.77,West,259,6.0,13.0,91,0.00,,---,0.00,VWS V13.01,2013-12-05 18:40:00,
2013-12-05 13:45:00,58.1,55.2,29.76,WSW,257,5.0,14.0,90,0.00,,---,0.00,VWS V13.01,2013-12-05 18:45:00,
2013-12-05 13:50:00,58.5,55.6,29.76,West,279,9.0,14.0,90,0.00,,---,0.00,VWS V13.01,2013-12-05 18:50:00,
2013-12-05 13:55:00,59.0,55.5,29.76,West,263,0.0,14.0,88,0.00,,---,0.00,VWS V13.01,2013-12-05 18:55:00,
2013-12-05 14:00:00,59.0,55.5,29.75,West,261,5.0,13.0,88,0.00,,---,0.00,VWS V13.01,2013-12-05 19:00:00,
2013-12-05 14:05:00,59.0,55.5,29.75,West,263,5.0,13.0,88,0.00,,---,0.00,VWS V13.01,2013-12-05 19:05:00,
2013-12-05 14:10:00,59.0,55.5,29.75,West,269,7.0,13.0,88,0.00,,---,0.00,VWS V13.01,2013-12-05 19:10:00,
2013-12-05 14:16:00,59.1,55.2,29.75,West,277,8.0,14.0,87,0.00,,---,0.00,VWS V13.01,2013-12-05 19:16:00,
2013-12-05 14:21:00,59.0,55.1,29.75,West,268,10.0,14.0,87,0.00,,---,0.00,VWS V13.01,2013-12-05 19:21:00,
2013-12-05 14:26:00,59.0,55.5,29.75,West,268,6.0,14.0,88,0.00,,---,0.00,VWS V13.01,2013-12-05 19:26:00,
2013-12-05 14:31:00,58.7,55.2,29.75,West,269,7.0,9.0,88,0.00,,---,0.00,VWS V13.01,2013-12-05 19:31:00,
2013-12-05 14:36:00,59.0,55.5,29.75,West,261,10.0,10.0,88,0.00,,---,0.00,VWS V13.01,2013-12-05 19:36:00,
2013-12-05 14:41:00,58.9,55.4,29.75,West,267,7.0,11.0,88,0.00,,---,0.00,VWS V13.01,2013-12-05 19:41:00,
2013-12-05 14:46:00,58.9,55.4,29.75,West,273,8.0,15.0,88,0.00,,---,0.00,VWS V13.01,2013-12-05 19:46:00,
2013-12-05 14:51:00,59.0,55.1,29.75,West,265,5.0,15.0,87,0.00,,---,0.00,VWS V13.01,2013-12-05 19:51:00,
2013-12-05 14:56:00,59.0,55.1,29.76,West,267,6.0,15.0,87,0.00,,---,0.00,VWS V13.01,2013-12-05 19:56:00,
2013-12-05 15:01:00,58.9,55.0,29.76,West,268,7.0,9.0,87,0.00,,---,0.00,VWS V13.01,2013-12-05 20:01:00,
2013-12-05 15:06:00,58.3,54.5,29.76,West,268,1.0,9.0,87,0.00,,---,0.00,VWS V13.01,2013-12-05 20:06:00,
2013-12-05 15:11:00,58.3,54.8,29.75,West,268,1.0,9.0,88,0.00,,---,0.00,VWS V13.01,2013-12-05 20:11:00,
2013-12-05 15:16:00,59.0,55.5,29.74,West,270,0.0,9.0,88,0.00,,---,0.00,VWS V13.01,2013-12-05 20:16:00,
2013-12-05 15:21:00,59.0,55.1,29.75,West,270,5.0,9.0,87,0.00,,---,0.00,VWS V13.01,2013-12-05 20:21:00,
2013-12-05 15:26:00,59.0,55.1,29.76,West,270,5.0,10.0,87,0.00,,---,0.00,VWS V13.01,2013-12-05 20:26:00,
2013-12-05 15:31:00,59.0,55.1,29.76,West,265,6.0,8.0,87,0.00,,---,0.00,VWS V13.01,2013-12-05 20:31:00,
2013-12-05 15:37:00,59.0,55.1,29.76,WSW,254,0.0,10.0,87,0.00,,---,0.00,VWS V13.01,2013-12-05 20:37:00,
2013-12-05 15:42:00,58.6,54.4,29.77,West,272,10.0,16.0,86,0.00,,---,0.00,VWS V13.01,2013-12-05 20:42:00,
2013-12-05 15:47:00,56.8,52.7,29.78,West,269,3.0,19.0,86,0.00,,---,0.00,VWS V13.01,2013-12-05 20:47:00,
2013-12-05 15:52:00,54.6,49.9,29.80,WNW,293,9.0,19.0,84,0.00,,---,0.00,VWS V13.01,2013-12-05 20:52:00,
2013-12-05 15:57:00,52.6,47.9,29.80,NW,305,7.0,19.0,84,0.00,,---,0.00,VWS V13.01,2013-12-05 20:57:00,
2013-12-05 16:02:00,50.0,45.7,29.82,WNW,302,2.0,14.0,85,0.00,,---,0.00,VWS V13.01,2013-12-05 21:02:00,
2013-12-05 16:07:00,48.4,44.7,29.84,West,273,9.0,16.0,87,0.00,,---,0.00,VWS V13.01,2013-12-05 21:07:00,
2013-12-05 16:12:00,47.2,43.8,29.84,West,281,11.0,18.0,88,0.00,,---,0.00,VWS V13.01,2013-12-05 21:12:00,
2013-12-05 16:17:00,46.7,43.3,29.85,West,268,12.0,18.0,88,0.00,,---,0.00,VWS V13.01,2013-12-05 21:17:00,
2013-12-05 16:22:00,46.1,42.8,29.85,WNW,294,5.0,18.0,88,0.00,,---,0.00,VWS V13.01,2013-12-05 21:22:00,
2013-12-05 16:27:00,45.8,42.5,29.86,WNW,303,0.0,18.0,88,0.00,,---,0.00,VWS V13.01,2013-12-05 21:27:00,
2013-12-05 16:32:00,45.6,42.3,29.86,NW,304,0.0,0.0,88,0.00,,---,0.00,VWS V13.01,2013-12-05 21:32:00,
2013-12-05 16:37:00,45.3,42.0,29.85,NW,304,6.0,6.0,88,0.00,,---,0.00,VWS V13.01,2013-12-05 21:37:00,
2013-12-05 16:42:00,45.0,41.7,29.85,NW,304,2.0,6.0,88,0.00,,---,0.00,VWS V13.01,2013-12-05 21:42:00,
2013-12-05 16:48:00,44.7,41.1,29.85,WNW,298,6.0,7.0,87,0.00,,---,0.00,VWS V13.01,2013-12-05 21:48:00,
2013-12-05 16:53:00,44.1,40.8,29.84,WNW,296,5.0,7.0,88,0.00,,---,0.00,VWS V13.01,2013-12-05 21:53:00,
2013-12-05 16:58:00,43.8,40.2,29.85,WNW,296,5.0,7.0,87,0.00,,---,0.00,VWS V13.01,2013-12-05 21:58:00,
2013-12-05 17:03:00,43.8,40.5,29.86,WNW,295,7.0,8.0,88,0.00,,---,0.00,VWS V13.01,2013-12-05 22:03:00,
2013-12-05 17:08:00,43.9,40.0,29.87,NW,310,10.0,10.0,86,0.00,,---,0.00,VWS V13.01,2013-12-05 22:08:00,
2013-12-05 17:13:00,43.7,38.9,29.88,West,281,11.0,13.0,83,0.00,,---,0.00,VWS V13.01,2013-12-05 22:13:00,
2013-12-05 17:18:00,43.4,38.0,29.89,WNW,300,12.0,16.0,81,0.00,,---,0.00,VWS V13.01,2013-12-05 22:18:00,
2013-12-05 17:23:00,43.2,37.8,29.90,WNW,300,8.0,16.0,81,0.00,,---,0.00,VWS V13.01,2013-12-05 22:23:00,
2013-12-05 17:28:00,42.8,37.4,29.90,WNW,290,6.0,16.0,81,0.00,,---,0.00,VWS V13.01,2013-12-05 22:28:00,
2013-12-05 17:33:00,42.4,37.6,29.90,West,275,6.0,14.0,83,0.00,,---,0.00,VWS V13.01,2013-12-05 22:33:00,
2013-12-05 17:38:00,42.0,37.5,29.90,West,277,6.0,14.0,84,0.00,,---,0.00,VWS V13.01,2013-12-05 22:38:00,
2013-12-05 17:43:00,41.7,37.5,29.90,West,281,5.0,14.0,85,0.00,,---,0.00,VWS V13.01,2013-12-05 22:43:00,
2013-12-05 17:48:00,41.3,37.1,29.90,NW,308,8.0,14.0,85,0.00,,---,0.00,VWS V13.01,2013-12-05 22:48:00,
2013-12-05 17:53:00,40.7,37.1,29.90,NW,305,8.0,14.0,87,0.01,,---,0.01,VWS V13.01,2013-12-05 22:53:00,
2013-12-05 17:58:00,40.4,37.1,29.90,WNW,300,5.0,14.0,88,0.01,,---,0.01,VWS V13.01,2013-12-05 22:58:00,
2013-12-05 18:03:00,40.3,37.0,29.90,WNW,300,4.0,9.0,88,0.01,,---,0.01,VWS V13.01,2013-12-05 23:03:00,
2013-12-05 18:08:00,40.2,37.2,29.92,WNW,299,6.0,9.0,89,0.01,,---,0.01,VWS V13.01,2013-12-05 23:08:00,
2013-12-05 18:14:00,40.1,36.8,29.92,WNW,292,6.0,10.0,88,0.01,,---,0.01,VWS V13.01,2013-12-05 23:14:00,
2013-12-05 18:19:00,40.0,37.0,29.92,WNW,293,5.0,10.0,89,0.01,,---,0.01,VWS V13.01,2013-12-05 23:19:00,
2013-12-05 18:24:00,39.9,36.9,29.93,WNW,293,2.0,10.0,89,0.01,,---,0.01,VWS V13.01,2013-12-05 23:24:00,
2013-12-05 18:29:00,39.8,36.8,29.93,WNW,292,1.0,10.0,89,0.01,,---,0.01,VWS V13.01,2013-12-05 23:29:00,
2013-12-05 18:34:00,39.7,36.7,29.93,WNW,293,6.0,7.0,89,0.01,,---,0.01,VWS V13.01,2013-12-05 23:34:00,
2013-12-05 18:39:00,39.6,36.6,29.93,WNW,293,0.0,7.0,89,0.01,,---,0.01,VWS V13.01,2013-12-05 23:39:00,
2013-12-05 18:44:00,39.5,36.5,29.93,WNW,292,5.0,7.0,89,0.01,,---,0.01,VWS V13.01,2013-12-05 23:44:00,
2013-12-05 18:49:00,39.5,36.5,29.94,WNW,293,2.0,7.0,89,0.01,,---,0.01,VWS V13.01,2013-12-05 23:49:00,
2013-12-05 18:54:00,39.5,36.8,29.94,WNW,291,5.0,8.0,90,0.01,,---,0.01,VWS V13.01,2013-12-05 23:54:00,
2013-12-05 18:59:00,39.5,36.2,29.94,West,275,6.0,11.0,88,0.01,,---,0.01,VWS V13.01,2013-12-05 23:59:00,
2013-12-05 19:04:00,39.5,36.2,29.94,West,271,11.0,12.0,88,0.00,,---,0.01,VWS V13.01,2013-12-06 00:04:00,
2013-12-05 19:09:00,39.5,36.2,29.94,West,271,6.0,12.0,88,0.00,,---,0.01,VWS V13.01,2013-12-06 00:09:00,
2013-12-05 19:14:00,39.5,35.7,29.95,WNW,284,7.0,12.0,86,0.00,,---,0.01,VWS V13.01,2013-12-06 00:14:00,
2013-12-05 19:19:00,39.5,36.0,29.95,WNW,286,3.0,12.0,87,0.00,,---,0.01,VWS V13.01,2013-12-06 00:19:00,
2013-12-05 19:24:00,39.4,35.9,29.95,WNW,286,5.0,12.0,87,0.00,,---,0.01,VWS V13.01,2013-12-06 00:24:00,
2013-12-05 19:29:00,39.3,35.5,29.95,West,281,6.0,12.0,86,0.00,,---,0.01,VWS V13.01,2013-12-06 00:29:00,
2013-12-05 19:35:00,39.1,34.7,29.95,West,279,9.0,13.0,84,0.00,,---,0.01,VWS V13.01,2013-12-06 00:35:00,
2013-12-05 19:40:00,38.9,34.5,29.95,WNW,288,11.0,16.0,84,0.00,,---,0.01,VWS V13.01,2013-12-06 00:40:00,
2013-12-05 19:45:00,38.8,34.4,29.95,West,279,7.0,16.0,84,0.00,,---,0.01,VWS V13.01,2013-12-06 00:45:00,
2013-12-05 19:50:00,38.7,34.0,29.95,West,267,8.0,16.0,83,0.00,,---,0.01,VWS V13.01,2013-12-06 00:50:00,
2013-12-05 19:55:00,38.6,33.9,29.96,West,274,10.0,16.0,83,0.00,,---,0.01,VWS V13.01,2013-12-06 00:55:00,
2013-12-05 20:00:00,38.5,33.8,29.97,West,276,7.0,9.0,83,0.00,,---,0.01,VWS V13.01,2013-12-06 01:00:00,
2013-12-05 20:05:00,38.3,33.6,29.96,West,261,9.0,12.0,83,0.00,,---,0.01,VWS V13.01,2013-12-06 01:05:00,
2013-12-05 20:10:00,38.2,33.2,29.96,WSW,257,6.0,12.0,82,0.00,,---,0.01,VWS V13.01,2013-12-06 01:10:00,
2013-12-05 20:15:00,38.2,33.2,29.96,WSW,256,7.0,12.0,82,0.00,,---,0.01,VWS V13.01,2013-12-06 01:15:00,
2013-12-05 20:20:00,38.1,33.4,29.96,WSW,256,8.0,12.0,83,0.00,,---,0.01,VWS V13.01,2013-12-06 01:20:00,
2013-12-05 20:25:00,37.9,33.5,29.96,WSW,256,7.0,12.0,84,0.00,,---,0.01,VWS V13.01,2013-12-06 01:25:00,
2013-12-05 20:30:00,37.7,33.3,29.95,West,263,6.0,7.0,84,0.00,,---,0.01,VWS V13.01,2013-12-06 01:30:00,
2013-12-05 20:35:00,37.4,33.3,29.96,WSW,252,8.0,12.0,85,0.00,,---,0.01,VWS V13.01,2013-12-06 01:35:00,
2013-12-05 20:40:00,37.4,33.0,29.96,West,269,8.0,13.0,84,0.00,,---,0.01,VWS V13.01,2013-12-06 01:40:00,
2013-12-05 20:45:00,37.3,33.2,29.96,West,269,9.0,13.0,85,0.00,,---,0.01,VWS V13.01,2013-12-06 01:45:00,
2013-12-05 20:51:00,37.4,33.0,29.96,West,275,1.0,13.0,84,0.00,,---,0.01,VWS V13.01,2013-12-06 01:51:00,
2013-12-05 20:56:00,37.3,33.2,29.95,West,275,0.0,13.0,85,0.00,,---,0.01,VWS V13.01,2013-12-06 01:56:00,
2013-12-05 21:01:00,37.3,33.2,29.95,West,275,4.0,5.0,85,0.00,,---,0.01,VWS V13.01,2013-12-06 02:01:00,
2013-12-05 21:06:00,37.2,33.1,29.95,West,275,6.0,8.0,85,0.00,,---,0.01,VWS V13.01,2013-12-06 02:06:00,
2013-12-05 21:11:00,37.1,33.0,29.94,West,275,4.0,8.0,85,0.00,,---,0.01,VWS V13.01,2013-12-06 02:11:00,
2013-12-05 21:16:00,37.1,33.0,29.96,West,275,2.0,8.0,85,0.00,,---,0.01,VWS V13.01,2013-12-06 02:16:00,
2013-12-05 21:21:00,37.1,33.3,29.97,West,275,4.0,8.0,86,0.00,,---,0.01,VWS V13.01,2013-12-06 02:21:00,
2013-12-05 21:26:00,37.0,33.5,29.97,West,275,5.0,8.0,87,0.00,,---,0.01,VWS V13.01,2013-12-06 02:26:00,
2013-12-05 21:31:00,36.8,33.3,29.96,West,275,5.0,5.0,87,0.00,,---,0.01,VWS V13.01,2013-12-06 02:31:00,
2013-12-05 21:36:00,36.8,33.6,29.97,West,275,5.0,5.0,88,0.00,,---,0.01,VWS V13.01,2013-12-06 02:36:00,
2013-12-05 21:41:00,36.6,33.7,29.98,West,275,7.0,7.0,89,0.01,,---,0.02,VWS V13.01,2013-12-06 02:41:00,
2013-12-05 21:46:00,36.5,33.6,29.98,WNW,284,4.0,12.0,89,0.01,,---,0.02,VWS V13.01,2013-12-06 02:46:00,
2013-12-05 21:51:00,36.5,33.3,29.98,WNW,288,7.0,12.0,88,0.01,,---,0.02,VWS V13.01,2013-12-06 02:51:00,
2013-12-05 21:57:00,36.4,33.5,29.98,WNW,288,2.0,12.0,89,0.01,,---,0.02,VWS V13.01,2013-12-06 02:57:00,
2013-12-05 22:02:00,36.2,33.3,29.97,WNW,288,5.0,6.0,89,0.01,,---,0.02,VWS V13.01,2013-12-06 03:02:00,
2013-12-05 22:07:00,36.0,33.4,29.97,WNW,288,0.0,6.0,90,0.01,,---,0.02,VWS V13.01,2013-12-06 03:07:00,
2013-12-05 22:12:00,35.9,33.3,29.97,WNW,287,0.0,7.0,90,0.01,,---,0.02,VWS V13.01,2013-12-06 03:12:00,
2013-12-05 22:17:00,35.9,33.5,29.97,WNW,288,0.0,7.0,91,0.02,,---,0.03,VWS V13.01,2013-12-06 03:17:00,
2013-12-05 22:22:00,35.9,33.5,29.97,WNW,287,0.0,7.0,91,0.02,,---,0.03,VWS V13.01,2013-12-06 03:22:00,
2013-12-05 22:27:00,35.8,33.4,29.97,WNW,287,1.0,7.0,91,0.02,,---,0.03,VWS V13.01,2013-12-06 03:27:00,
2013-12-05 22:32:00,35.7,33.3,29.97,WNW,288,0.0,0.0,91,0.02,,---,0.03,VWS V13.01,2013-12-06 03:32:00,
2013-12-05 22:37:00,35.7,33.6,29.98,WNW,288,0.0,3.0,92,0.02,,---,0.03,VWS V13.01,2013-12-06 03:37:00,
2013-12-05 22:42:00,35.6,33.5,29.99,WNW,288,3.0,3.0,92,0.02,,---,0.03,VWS V13.01,2013-12-06 03:42:00,
2013-12-05 22:47:00,35.6,33.5,30.00,WNW,288,3.0,7.0,92,0.02,,---,0.03,VWS V13.01,2013-12-06 03:47:00,
2013-12-05 22:52:00,35.6,33.5,29.99,WNW,287,7.0,7.0,92,0.02,,---,0.03,VWS V13.01,2013-12-06 03:52:00,
2013-12-05 22:57:00,35.6,33.5,30.00,WNW,284,3.0,8.0,92,0.02,,---,0.03,VWS V13.01,2013-12-06 03:57:00,
2013-12-05 23:02:00,35.6,33.5,29.99,WNW,284,2.0,5.0,92,0.01,,---,0.03,VWS V13.01,2013-12-06 04:02:00,
2013-12-05 23:07:00,35.6,33.5,29.99,WNW,284,4.0,7.0,92,0.02,,---,0.04,VWS V13.01,2013-12-06 04:07:00,
2013-12-05 23:12:00,35.6,33.5,30.00,WNW,284,0.0,7.0,92,0.02,,---,0.04,VWS V13.01,2013-12-06 04:12:00,
2013-12-05 23:18:00,35.4,33.6,30.01,WNW,284,2.0,7.0,93,0.02,,---,0.04,VWS V13.01,2013-12-06 04:18:00,
2013-12-05 23:23:00,35.3,33.5,30.00,WNW,284,5.0,7.0,93,0.02,,---,0.04,VWS V13.01,2013-12-06 04:23:00,
2013-12-05 23:28:00,35.3,33.5,30.00,WNW,284,5.0,7.0,93,0.02,,---,0.04,VWS V13.01,2013-12-06 04:28:00,
2013-12-05 23:33:00,35.3,33.5,30.00,WNW,284,4.0,4.0,93,0.02,,---,0.05,VWS V13.01,2013-12-06 04:33:00,
2013-12-05 23:38:00,35.2,33.4,29.99,WNW,284,4.0,6.0,93,0.02,,---,0.05,VWS V13.01,2013-12-06 04:38:00,
2013-12-05 23:43:00,35.2,33.4,30.01,WNW,284,6.0,8.0,93,0.02,,---,0.05,VWS V13.01,2013-12-06 04:43:00,
2013-12-05 23:48:00,35.2,33.4,30.02,West,280,2.0,11.0,93,0.03,,---,0.06,VWS V13.01,2013-12-06 04:48:00,
2013-12-05 23:53:00,35.2,33.4,30.02,West,280,5.0,11.0,93,0.03,,---,0.06,VWS V13.01,2013-12-06 04:53:00,
2013-12-05 23:58:00,34.9,33.1,30.03,West,280,3.0,11.0,93,0.03,,---,0.06,VWS V13.01,2013-12-06 04:58:00,